Catalina Duke — WDI2784 — position and weather

sailwx.info

Track history (hours):
 
Tides and Currents Weather Stations Pressure Air Temp Water Temp Dewpoint Dewpoint Depression Visibility Wind Speed Wind Dir Waves Ship Positions

Catalina Duke

Owner: Catalina Classic Cruises, San Diego, CA. More information available from US FCC via Universal Licensing System and Coast Guard Vessel Documentation Center.

Last reported at 2018-Jun-23 22:41 UTC. Time now 2018-Jun-24 01:41 UTC.
Position N 33°46' W 118°15'.

Length 25 m; draft 2.8 m.

Type: Passenger vessel. MMSI: 367681720.

Date/timePositionNaut miles runAvg speedWind from/ knotsBaromVisibWave heightAir tempDewpointWater temp
2018-Jun-23 22:41N 33°46' W 118°15'1 3.2
2018-Jun-23 22:30N 33°46' W 118°15'3 5.5
2018-Jun-23 22:00N 33°43' W 118°14'3 6.6
2018-Jun-23 21:30N 33°45' W 118°12'0 0.0
2018-Jun-23 21:00N 33°45' W 118°12'0 0.0
2018-Jun-23 20:30N 33°45' W 118°12'0 0.1
2018-Jun-23 20:00N 33°45' W 118°12'4 8.4
2018-Jun-23 19:30N 33°41' W 118°11'21 9.5
2018-Jun-23 17:19N 33°27' W 118°30'713.5
2018-Jun-23 16:46N 33°33' W 118°24'414.0
2018-Jun-23 16:30N 33°35' W 118°21'713.8
2018-Jun-23 16:00N 33°41' W 118°16'4 8.5
2018-Jun-23 15:30N 33°45' W 118°16'2 3.3
2018-Jun-23 15:00N 33°46' W 118°15'  
2018-Jun-20 01:53N 33°46' W 118°15'2 6.4
2018-Jun-20 01:30N 33°44' W 118°16'510.4
2018-Jun-20 01:00N 33°39' W 118°15'611.8
2018-Jun-20 00:30N 33°33' W 118°17'611.9
2018-Jun-20 00:00N 33°27' W 118°18'6 5.2
2018-Jun-19 22:47N 33°21' W 118°19'0 0.0
2018-Jun-19 20:08N 33°21' W 118°19'0 0.9
2018-Jun-19 20:00N 33°21' W 118°19'0 0.1
2018-Jun-19 18:49N 33°21' W 118°19'0 0.0
2018-Jun-19 16:39N 33°21' W 118°19'0 0.8
2018-Jun-19 16:30N 33°21' W 118°19'0 0.1
2018-Jun-19 16:00N 33°21' W 118°19'0 0.1
2018-Jun-19 15:19N 33°21' W 118°19'0 0.0
2018-Jun-18 23:38N 33°21' W 118°19'0 0.7
2018-Jun-18 23:22N 33°21' W 118°19'0 0.0
2018-Jun-18 22:07N 33°21' W 118°19'0 0.1
2018-Jun-18 21:16N 33°21' W 118°19'0 0.1
2018-Jun-18 19:03N 33°21' W 118°19'0 0.0
2018-Jun-18 18:57N 33°21' W 118°19'0 0.2
2018-Jun-18 18:20N 33°21' W 118°19'0 0.0
2018-Jun-18 17:36N 33°21' W 118°19'0 0.1
2018-Jun-18 16:51N 33°21' W 118°19'8 2.9
2018-Jun-18 14:08N 33°28' W 118°17'212.0
2018-Jun-18 14:01N 33°30' W 118°17'612.0
2018-Jun-18 13:31N 33°36' W 118°16'612.2
2018-Jun-18 13:01N 33°42' W 118°15'4 7.6
2018-Jun-18 12:30N 33°46' W 118°15'0 0.0
2018-Jun-17 02:28N 33°46' W 118°15'1 2.0
2018-Jun-17 02:00N 33°46' W 118°14'2 4.5
2018-Jun-17 01:30N 33°45' W 118°11'0 0.6
2018-Jun-17 01:01N 33°45' W 118°12'0 0.0
2018-Jun-17 00:28N 33°45' W 118°12'3 6.0
2018-Jun-17 00:00N 33°42' W 118°11'612.7
2018-Jun-16 23:30N 33°37' W 118°14'1412.6
2018-Jun-16 22:23N 33°24' W 118°22'0 0.0
2018-Jun-16 21:50N 33°24' W 118°22'411.6
2018-Jun-16 21:30N 33°28' W 118°20'612.8
2018-Jun-16 21:00N 33°34' W 118°18'612.9
2018-Jun-16 20:30N 33°40' W 118°16'5 9.4
2018-Jun-16 20:00N 33°45' W 118°17'2 3.9
2018-Jun-16 19:30N 33°46' W 118°15'  
Track history (hours):
 
Tides and Currents Weather Stations Pressure Air Temp Water Temp Dewpoint Dewpoint Depression Visibility Wind Speed Wind Dir Waves Ship Positions

Catalina Duke

Owner: Catalina Classic Cruises, San Diego, CA. More information available from US FCC via Universal Licensing System and Coast Guard Vessel Documentation Center.

Last reported at 2018-Jun-23 22:41 UTC. Time now 2018-Jun-24 01:41 UTC.
Position N 33°46' W 118°15'.

Length 25 m; draft 2.8 m.

Type: Passenger vessel. MMSI: 367681720.

Date/timePositionNaut miles runAvg speedWind from/ knotsBaromVisibWave heightAir tempDewpointWater temp
2018-Jun-23 22:41N 33°46' W 118°15'1 3.2
2018-Jun-23 22:30N 33°46' W 118°15'3 5.5
2018-Jun-23 22:00N 33°43' W 118°14'3 6.6
2018-Jun-23 21:30N 33°45' W 118°12'0 0.0
2018-Jun-23 21:00N 33°45' W 118°12'0 0.0
2018-Jun-23 20:30N 33°45' W 118°12'0 0.1
2018-Jun-23 20:00N 33°45' W 118°12'4 8.4
2018-Jun-23 19:30N 33°41' W 118°11'21 9.5
2018-Jun-23 17:19N 33°27' W 118°30'713.5
2018-Jun-23 16:46N 33°33' W 118°24'414.0
2018-Jun-23 16:30N 33°35' W 118°21'713.8
2018-Jun-23 16:00N 33°41' W 118°16'4 8.5
2018-Jun-23 15:30N 33°45' W 118°16'2 3.3
2018-Jun-23 15:00N 33°46' W 118°15'  
2018-Jun-20 01:53N 33°46' W 118°15'2 6.4
2018-Jun-20 01:30N 33°44' W 118°16'510.4
2018-Jun-20 01:00N 33°39' W 118°15'611.8
2018-Jun-20 00:30N 33°33' W 118°17'611.9
2018-Jun-20 00:00N 33°27' W 118°18'6 5.2
2018-Jun-19 22:47N 33°21' W 118°19'0 0.0
2018-Jun-19 20:08N 33°21' W 118°19'0 0.9
2018-Jun-19 20:00N 33°21' W 118°19'0 0.1
2018-Jun-19 18:49N 33°21' W 118°19'0 0.0
2018-Jun-19 16:39N 33°21' W 118°19'0 0.8
2018-Jun-19 16:30N 33°21' W 118°19'0 0.1
2018-Jun-19 16:00N 33°21' W 118°19'0 0.1
2018-Jun-19 15:19N 33°21' W 118°19'0 0.0
2018-Jun-18 23:38N 33°21' W 118°19'0 0.7
2018-Jun-18 23:22N 33°21' W 118°19'0 0.0
2018-Jun-18 22:07N 33°21' W 118°19'0 0.1
2018-Jun-18 21:16N 33°21' W 118°19'0 0.1
2018-Jun-18 19:03N 33°21' W 118°19'0 0.0
2018-Jun-18 18:57N 33°21' W 118°19'0 0.2
2018-Jun-18 18:20N 33°21' W 118°19'0 0.0
2018-Jun-18 17:36N 33°21' W 118°19'0 0.1
2018-Jun-18 16:51N 33°21' W 118°19'8 2.9
2018-Jun-18 14:08N 33°28' W 118°17'212.0
2018-Jun-18 14:01N 33°30' W 118°17'612.0
2018-Jun-18 13:31N 33°36' W 118°16'612.2
2018-Jun-18 13:01N 33°42' W 118°15'4 7.6
2018-Jun-18 12:30N 33°46' W 118°15'0 0.0
2018-Jun-17 02:28N 33°46' W 118°15'1 2.0
2018-Jun-17 02:00N 33°46' W 118°14'2 4.5
2018-Jun-17 01:30N 33°45' W 118°11'0 0.6
2018-Jun-17 01:01N 33°45' W 118°12'0 0.0
2018-Jun-17 00:28N 33°45' W 118°12'3 6.0
2018-Jun-17 00:00N 33°42' W 118°11'612.7
2018-Jun-16 23:30N 33°37' W 118°14'1412.6
2018-Jun-16 22:23N 33°24' W 118°22'0 0.0
2018-Jun-16 21:50N 33°24' W 118°22'411.6
2018-Jun-16 21:30N 33°28' W 118°20'612.8
2018-Jun-16 21:00N 33°34' W 118°18'612.9
2018-Jun-16 20:30N 33°40' W 118°16'5 9.4
2018-Jun-16 20:00N 33°45' W 118°17'2 3.9
2018-Jun-16 19:30N 33°46' W 118°15'  

Dump ship's entire track history